sensor_id;sensor_type;location;lat;lon;timestamp;pressure;altitude;pressure_sealevel;temperature
74060;BMP280;62414;53.436;8.828;2022-12-05T00:00:46;101664.28;;;5.02
74060;BMP280;62414;53.436;8.828;2022-12-05T00:03:12;101650.47;;;5.00
74060;BMP280;62414;53.436;8.828;2022-12-05T00:05:38;101655.44;;;4.98
74060;BMP280;62414;53.436;8.828;2022-12-05T00:08:04;101646.63;;;5.01
74060;BMP280;62414;53.436;8.828;2022-12-05T00:10:29;101650.53;;;5.08
74060;BMP280;62414;53.436;8.828;2022-12-05T00:12:55;101646.38;;;5.10
74060;BMP280;62414;53.436;8.828;2022-12-05T00:15:21;101645.63;;;5.13
74060;BMP280;62414;53.436;8.828;2022-12-05T00:17:47;101650.63;;;5.15
74060;BMP280;62414;53.436;8.828;2022-12-05T00:20:12;101642.19;;;5.16
74060;BMP280;62414;53.436;8.828;2022-12-05T00:22:37;101637.25;;;5.18
74060;BMP280;62414;53.436;8.828;2022-12-05T00:25:04;101641.41;;;5.16
74060;BMP280;62414;53.436;8.828;2022-12-05T00:27:31;101635.72;;;5.17
74060;BMP280;62414;53.436;8.828;2022-12-05T00:29:56;101630.34;;;5.17
74060;BMP280;62414;53.436;8.828;2022-12-05T00:32:23;101633.03;;;5.21
74060;BMP280;62414;53.436;8.828;2022-12-05T00:34:49;101638.41;;;5.21
74060;BMP280;62414;53.436;8.828;2022-12-05T00:37:14;101635.38;;;5.22
74060;BMP280;62414;53.436;8.828;2022-12-05T00:39:39;101625.00;;;5.21
74060;BMP280;62414;53.436;8.828;2022-12-05T00:42:05;101625.00;;;5.21
74060;BMP280;62414;53.436;8.828;2022-12-05T00:44:30;101636.88;;;5.20
74060;BMP280;62414;53.436;8.828;2022-12-05T00:46:56;101637.25;;;5.18
74060;BMP280;62414;53.436;8.828;2022-12-05T00:49:22;101641.06;;;5.17
74060;BMP280;62414;53.436;8.828;2022-12-05T00:51:48;101638.78;;;5.19
74060;BMP280;62414;53.436;8.828;2022-12-05T00:54:15;101647.97;;;5.18
74060;BMP280;62414;53.436;8.828;2022-12-05T00:56:41;101642.63;;;5.18
74060;BMP280;62414;53.436;8.828;2022-12-05T00:59:07;101637.66;;;5.20
74060;BMP280;62414;53.436;8.828;2022-12-05T01:01:35;101643.06;;;5.24
74060;BMP280;62414;53.436;8.828;2022-12-05T01:04:03;101635.34;;;5.19
74060;BMP280;62414;53.436;8.828;2022-12-05T01:06:30;101646.06;;;5.19
74060;BMP280;62414;53.436;8.828;2022-12-05T01:08:56;101643.75;;;5.17
74060;BMP280;62414;53.436;8.828;2022-12-05T01:11:23;101637.97;;;5.15
74060;BMP280;62414;53.436;8.828;2022-12-05T01:13:49;101640.66;;;5.15
74060;BMP280;62414;53.436;8.828;2022-12-05T01:16:16;101628.75;;;5.13
74060;BMP280;62414;53.436;8.828;2022-12-05T01:18:42;101631.81;;;5.15
74060;BMP280;62414;53.436;8.828;2022-12-05T01:21:08;101624.91;;;5.10
74060;BMP280;62414;53.436;8.828;2022-12-05T01:23:34;101631.34;;;5.06
74060;BMP280;62414;53.436;8.828;2022-12-05T01:26:04;101622.13;;;5.03
74060;BMP280;62414;53.436;8.828;2022-12-05T01:28:30;101624.41;;;5.01
74060;BMP280;62414;53.436;8.828;2022-12-05T01:30:55;101619.06;;;5.05
74060;BMP280;62414;53.436;8.828;2022-12-05T01:33:21;101613.66;;;5.01
74060;BMP280;62414;53.436;8.828;2022-12-05T01:35:46;101616.78;;;5.03
74060;BMP280;62414;53.436;8.828;2022-12-05T01:38:12;101616.41;;;5.05
74060;BMP280;62414;53.436;8.828;2022-12-05T01:40:38;101614.47;;;5.05
74060;BMP280;62414;53.436;8.828;2022-12-05T01:43:09;101617.53;;;5.03
74060;BMP280;62414;53.436;8.828;2022-12-05T01:45:39;101611.81;;;5.05
74060;BMP280;62414;53.436;8.828;2022-12-05T01:48:09;101616.41;;;5.05
74060;BMP280;62414;53.436;8.828;2022-12-05T01:50:36;101617.88;;;5.02
74060;BMP280;62414;53.436;8.828;2022-12-05T01:53:02;101615.97;;;5.02
74060;BMP280;62414;53.436;8.828;2022-12-05T01:55:28;101612.19;;;5.03
74060;BMP280;62414;53.436;8.828;2022-12-05T01:57:56;101609.38;;;4.96
74060;BMP280;62414;53.436;8.828;2022-12-05T02:00:22;101601.72;;;4.95
74060;BMP280;62414;53.436;8.828;2022-12-05T02:02:50;101598.22;;;4.91
74060;BMP280;62414;53.436;8.828;2022-12-05T02:05:19;101600.91;;;4.91
74060;BMP280;62414;53.436;8.828;2022-12-05T02:07:46;101599.78;;;4.92
74060;BMP280;62414;53.436;8.828;2022-12-05T02:10:12;101598.94;;;4.88
74060;BMP280;62414;53.436;8.828;2022-12-05T02:12:38;101584.41;;;4.89
74060;BMP280;62414;53.436;8.828;2022-12-05T02:15:30;101591.66;;;4.88
74060;BMP280;62414;53.436;8.828;2022-12-05T02:18:09;101587.09;;;4.89
74060;BMP280;62414;53.436;8.828;2022-12-05T02:20:44;101587.13;;;4.92
74060;BMP280;62414;53.436;8.828;2022-12-05T02:23:35;101584.47;;;4.96
74060;BMP280;62414;53.436;8.828;2022-12-05T02:26:16;101597.13;;;4.95
74060;BMP280;62414;53.436;8.828;2022-12-05T02:29:19;101589.47;;;4.94
74060;BMP280;62414;53.436;8.828;2022-12-05T02:31:53;101587.16;;;4.96
74060;BMP280;62414;53.436;8.828;2022-12-05T02:34:26;101586.34;;;4.92
74060;BMP280;62414;53.436;8.828;2022-12-05T02:37:00;101592.53;;;4.96
74060;BMP280;62414;53.436;8.828;2022-12-05T02:39:32;101587.59;;;5.01
74060;BMP280;62414;53.436;8.828;2022-12-05T02:42:04;101590.72;;;5.03
74060;BMP280;62414;53.436;8.828;2022-12-05T02:44:38;101587.59;;;5.01
74060;BMP280;62414;53.436;8.828;2022-12-05T02:47:07;101587.66;;;5.05
74060;BMP280;62414;53.436;8.828;2022-12-05T02:49:35;101585.72;;;5.06
74060;BMP280;62414;53.436;8.828;2022-12-05T02:52:03;101588.03;;;5.07
74060;BMP280;62414;53.436;8.828;2022-12-05T02:54:32;101586.09;;;5.04
74060;BMP280;62414;53.436;8.828;2022-12-05T02:56:59;101578.81;;;5.05
74060;BMP280;62414;53.436;8.828;2022-12-05T02:59:25;101573.47;;;5.05
74060;BMP280;62414;53.436;8.828;2022-12-05T03:01:51;101575.72;;;5.02
74060;BMP280;62414;53.436;8.828;2022-12-05T03:04:20;101576.09;;;5.01
74060;BMP280;62414;53.436;8.828;2022-12-05T03:06:50;101574.19;;;5.01
74060;BMP280;62414;53.436;8.828;2022-12-05T03:09:20;101576.09;;;5.01
74060;BMP280;62414;53.436;8.828;2022-12-05T03:11:49;101570.00;;;5.04
74060;BMP280;62414;53.436;8.828;2022-12-05T03:14:18;101568.41;;;4.99
74060;BMP280;62414;53.436;8.828;2022-12-05T03:16:48;101573.34;;;4.97
74060;BMP280;62414;53.436;8.828;2022-12-05T03:19:19;101567.28;;;5.00
74060;BMP280;62414;53.436;8.828;2022-12-05T03:21:48;101564.63;;;5.04
74060;BMP280;62414;53.436;8.828;2022-12-05T03:24:14;101564.97;;;4.99
74060;BMP280;62414;53.436;8.828;2022-12-05T03:26:46;101561.91;;;5.00
74060;BMP280;62414;53.436;8.828;2022-12-05T03:29:21;101562.28;;;4.99
74060;BMP280;62414;53.436;8.828;2022-12-05T03:31:54;101560.38;;;4.99
74060;BMP280;62414;53.436;8.828;2022-12-05T03:34:32;101566.50;;;5.00
74060;BMP280;62414;53.436;8.828;2022-12-05T03:37:04;101566.56;;;5.07
74060;BMP280;62414;53.436;8.828;2022-12-05T03:39:32;101565.03;;;5.06
74060;BMP280;62414;53.436;8.828;2022-12-05T03:42:02;101568.16;;;5.08
74060;BMP280;62414;53.436;8.828;2022-12-05T03:44:35;101562.75;;;5.12
74060;BMP280;62414;53.436;8.828;2022-12-05T03:47:05;101562.41;;;5.10
74060;BMP280;62414;53.436;8.828;2022-12-05T03:49:35;101569.31;;;5.11
74060;BMP280;62414;53.436;8.828;2022-12-05T03:52:05;101567.41;;;5.11
74060;BMP280;62414;53.436;8.828;2022-12-05T03:54:35;101560.47;;;5.10
74060;BMP280;62414;53.436;8.828;2022-12-05T03:57:04;101552.81;;;5.09
74060;BMP280;62414;53.436;8.828;2022-12-05T03:59:34;101553.56;;;5.09
74060;BMP280;62414;53.436;8.828;2022-12-05T04:02:06;101552.44;;;5.10
74060;BMP280;62414;53.436;8.828;2022-12-05T04:04:38;101555.13;;;5.14
74060;BMP280;62414;53.436;8.828;2022-12-05T04:07:06;101551.31;;;5.15
74060;BMP280;62414;53.436;8.828;2022-12-05T04:09:35;101548.25;;;5.16
74060;BMP280;62414;53.436;8.828;2022-12-05T04:12:05;101546.72;;;5.15
74060;BMP280;62414;53.436;8.828;2022-12-05T04:14:36;101550.16;;;5.16
74060;BMP280;62414;53.436;8.828;2022-12-05T04:17:05;101557.88;;;5.17
74060;BMP280;62414;53.436;8.828;2022-12-05T04:19:38;101549.81;;;5.17
74060;BMP280;62414;53.436;8.828;2022-12-05T04:22:04;101542.94;;;5.20
74060;BMP280;62414;53.436;8.828;2022-12-05T04:24:30;101542.94;;;5.20
74060;BMP280;62414;53.436;8.828;2022-12-05T04:27:08;101539.88;;;5.21
74060;BMP280;62414;53.436;8.828;2022-12-05T04:29:38;101552.16;;;5.22
74060;BMP280;62414;53.436;8.828;2022-12-05T04:32:10;101550.25;;;5.23
74060;BMP280;62414;53.436;8.828;2022-12-05T04:34:40;101553.34;;;5.25
74060;BMP280;62414;53.436;8.828;2022-12-05T04:37:10;101555.66;;;5.26
74060;BMP280;62414;53.436;8.828;2022-12-05T04:39:40;101550.28;;;5.26
74060;BMP280;62414;53.436;8.828;2022-12-05T04:42:09;101552.19;;;5.26
74060;BMP280;62414;53.436;8.828;2022-12-05T04:44:39;101547.97;;;5.25
74060;BMP280;62414;53.436;8.828;2022-12-05T04:47:07;101546.06;;;5.25
74060;BMP280;62414;53.436;8.828;2022-12-05T04:49:35;101547.97;;;5.25
74060;BMP280;62414;53.436;8.828;2022-12-05T04:52:07;101541.44;;;5.26
74060;BMP280;62414;53.436;8.828;2022-12-05T04:54:37;101540.69;;;5.25
74060;BMP280;62414;53.436;8.828;2022-12-05T04:57:08;101544.13;;;5.26
74060;BMP280;62414;53.436;8.828;2022-12-05T04:59:34;101543.03;;;5.27
74060;BMP280;62414;53.436;8.828;2022-12-05T05:02:05;101541.09;;;5.27
74060;BMP280;62414;53.436;8.828;2022-12-05T05:04:34;101541.09;;;5.31
74060;BMP280;62414;53.436;8.828;2022-12-05T05:07:06;101544.59;;;5.35
74060;BMP280;62414;53.436;8.828;2022-12-05T05:09:31;101536.53;;;5.35
74060;BMP280;62414;53.436;8.828;2022-12-05T05:11:57;101538.44;;;5.35
74060;BMP280;62414;53.436;8.828;2022-12-05T05:14:23;101545.34;;;5.36
74060;BMP280;62414;53.436;8.828;2022-12-05T05:16:48;101541.13;;;5.35
74060;BMP280;62414;53.436;8.828;2022-12-05T05:19:13;101546.94;;;5.37
74060;BMP280;62414;53.436;8.828;2022-12-05T05:21:40;101543.09;;;5.38
74060;BMP280;62414;53.436;8.828;2022-12-05T05:24:08;101540.38;;;5.34
74060;BMP280;62414;53.436;8.828;2022-12-05T05:26:35;101541.13;;;5.35
74060;BMP280;62414;53.436;8.828;2022-12-05T05:29:02;101538.44;;;5.35
74060;BMP280;62414;53.436;8.828;2022-12-05T05:31:27;101530.03;;;5.36
74060;BMP280;62414;53.436;8.828;2022-12-05T05:33:54;101533.13;;;5.38
74060;BMP280;62414;53.436;8.828;2022-12-05T05:36:22;101537.75;;;5.41
74060;BMP280;62414;53.436;8.828;2022-12-05T05:38:49;101546.59;;;5.42
74060;BMP280;62414;53.436;8.828;2022-12-05T05:41:17;101543.91;;;5.42
74060;BMP280;62414;53.436;8.828;2022-12-05T05:43:44;101540.41;;;5.38
74060;BMP280;62414;53.436;8.828;2022-12-05T05:46:10;101536.13;;;5.33
74060;BMP280;62414;53.436;8.828;2022-12-05T05:48:36;101540.78;;;5.36
74060;BMP280;62414;53.436;8.828;2022-12-05T05:51:03;101538.88;;;5.37
74060;BMP280;62414;53.436;8.828;2022-12-05T05:53:28;101541.56;;;5.37
74060;BMP280;62414;53.436;8.828;2022-12-05T05:55:54;101540.03;;;5.39
74060;BMP280;62414;53.436;8.828;2022-12-05T05:58:20;101536.97;;;5.41
74060;BMP280;62414;53.436;8.828;2022-12-05T06:00:46;101530.81;;;5.40
74060;BMP280;62414;53.436;8.828;2022-12-05T06:03:11;101527.38;;;5.40
74060;BMP280;62414;53.436;8.828;2022-12-05T06:05:37;101525.44;;;5.37
74060;BMP280;62414;53.436;8.828;2022-12-05T06:08:03;101522.38;;;5.38
74060;BMP280;62414;53.436;8.828;2022-12-05T06:10:28;101530.44;;;5.38
74060;BMP280;62414;53.436;8.828;2022-12-05T06:12:54;101533.13;;;5.38
74060;BMP280;62414;53.436;8.828;2022-12-05T06:15:20;101522.34;;;5.35
74060;BMP280;62414;53.436;8.828;2022-12-05T06:17:46;101525.44;;;5.37
74060;BMP280;62414;53.436;8.828;2022-12-05T06:20:12;101522.00;;;5.36
74060;BMP280;62414;53.436;8.828;2022-12-05T06:22:37;101527.34;;;5.36
74060;BMP280;62414;53.436;8.828;2022-12-05T06:25:03;101521.19;;;5.36
74060;BMP280;62414;53.436;8.828;2022-12-05T06:27:30;101525.47;;;5.40
74060;BMP280;62414;53.436;8.828;2022-12-05T06:29:55;101536.19;;;5.40
74060;BMP280;62414;53.436;8.828;2022-12-05T06:32:22;101530.81;;;5.40
74060;BMP280;62414;53.436;8.828;2022-12-05T06:34:48;101527.34;;;5.36
74060;BMP280;62414;53.436;8.828;2022-12-05T06:37:13;101527.38;;;5.40
74060;BMP280;62414;53.436;8.828;2022-12-05T06:39:39;101535.44;;;5.40
74060;BMP280;62414;53.436;8.828;2022-12-05T06:42:04;101541.22;;;5.42
74060;BMP280;62414;53.436;8.828;2022-12-05T06:44:30;101533.50;;;5.40
74060;BMP280;62414;53.436;8.828;2022-12-05T06:46:55;101540.81;;;5.40
74060;BMP280;62414;53.436;8.828;2022-12-05T06:49:23;101538.88;;;5.37
74060;BMP280;62414;53.436;8.828;2022-12-05T06:51:48;101535.00;;;5.34
74060;BMP280;62414;53.436;8.828;2022-12-05T06:54:14;101537.69;;;5.34
74060;BMP280;62414;53.436;8.828;2022-12-05T06:56:39;101536.53;;;5.35
74060;BMP280;62414;53.436;8.828;2022-12-05T06:59:05;101536.19;;;5.37
74060;BMP280;62414;53.436;8.828;2022-12-05T07:01:31;101530.00;;;5.33
74060;BMP280;62414;53.436;8.828;2022-12-05T07:03:56;101539.63;;;5.37
74060;BMP280;62414;53.436;8.828;2022-12-05T07:06:23;101541.47;;;5.29
74060;BMP280;62414;53.436;8.828;2022-12-05T07:08:48;101529.22;;;5.28
74060;BMP280;62414;53.436;8.828;2022-12-05T07:11:14;101538.00;;;5.29
74060;BMP280;62414;53.436;8.828;2022-12-05T07:13:39;101536.53;;;5.32
74060;BMP280;62414;53.436;8.828;2022-12-05T07:16:05;101536.50;;;5.28
74060;BMP280;62414;53.436;8.828;2022-12-05T07:18:31;101535.72;;;5.27
74060;BMP280;62414;53.436;8.828;2022-12-05T07:20:57;101535.31;;;5.29
74060;BMP280;62414;53.436;8.828;2022-12-05T07:23:24;101541.88;;;5.28
74060;BMP280;62414;53.436;8.828;2022-12-05T07:25:50;101528.78;;;5.23
74060;BMP280;62414;53.436;8.828;2022-12-05T07:28:15;101539.16;;;5.24
74060;BMP280;62414;53.436;8.828;2022-12-05T07:30:41;101532.28;;;5.27
74060;BMP280;62414;53.436;8.828;2022-12-05T07:33:06;101526.88;;;5.23
74060;BMP280;62414;53.436;8.828;2022-12-05T07:35:31;101522.66;;;5.22
74060;BMP280;62414;53.436;8.828;2022-12-05T07:38:00;101519.19;;;5.22
74060;BMP280;62414;53.436;8.828;2022-12-05T07:40:27;101523.75;;;5.21
74060;BMP280;62414;53.436;8.828;2022-12-05T07:42:52;101522.66;;;5.22
74060;BMP280;62414;53.436;8.828;2022-12-05T07:45:18;101526.88;;;5.23
74060;BMP280;62414;53.436;8.828;2022-12-05T07:47:43;101531.41;;;5.19
74060;BMP280;62414;53.436;8.828;2022-12-05T07:50:09;101529.88;;;5.18
74060;BMP280;62414;53.436;8.828;2022-12-05T07:52:36;101526.81;;;5.20
74060;BMP280;62414;53.436;8.828;2022-12-05T07:55:02;101524.84;;;5.17
74060;BMP280;62414;53.436;8.828;2022-12-05T07:57:29;101529.50;;;5.20
74060;BMP280;62414;53.436;8.828;2022-12-05T07:59:55;101527.63;;;5.24
74060;BMP280;62414;53.436;8.828;2022-12-05T08:02:20;101529.94;;;5.22
74060;BMP280;62414;53.436;8.828;2022-12-05T08:04:46;101533.72;;;5.21
74060;BMP280;62414;53.436;8.828;2022-12-05T08:07:12;101524.56;;;5.22
74060;BMP280;62414;53.436;8.828;2022-12-05T08:09:37;101531.81;;;5.21
74060;BMP280;62414;53.436;8.828;2022-12-05T08:12:03;101528.34;;;5.17
74060;BMP280;62414;53.436;8.828;2022-12-05T08:14:29;101532.91;;;5.17
74060;BMP280;62414;53.436;8.828;2022-12-05T08:16:55;101537.56;;;5.20
74060;BMP280;62414;53.436;8.828;2022-12-05T08:19:20;101534.09;;;5.19
74060;BMP280;62414;53.436;8.828;2022-12-05T08:21:46;101533.72;;;5.21
74060;BMP280;62414;53.436;8.828;2022-12-05T08:24:12;101539.88;;;5.21
74060;BMP280;62414;53.436;8.828;2022-12-05T08:26:38;101537.59;;;5.23
74060;BMP280;62414;53.436;8.828;2022-12-05T08:29:05;101538.38;;;5.24
74060;BMP280;62414;53.436;8.828;2022-12-05T08:31:34;101535.28;;;5.22
74060;BMP280;62414;53.436;8.828;2022-12-05T08:34:01;101538.31;;;5.20
74060;BMP280;62414;53.436;8.828;2022-12-05T08:36:27;101537.16;;;5.18
74060;BMP280;62414;53.436;8.828;2022-12-05T08:38:55;101544.13;;;5.22
74060;BMP280;62414;53.436;8.828;2022-12-05T08:41:20;101547.53;;;5.19
74060;BMP280;62414;53.436;8.828;2022-12-05T08:43:46;101551.69;;;5.17
74060;BMP280;62414;53.436;8.828;2022-12-05T08:46:11;101546.81;;;5.22
74060;BMP280;62414;53.436;8.828;2022-12-05T08:48:38;101548.34;;;5.23
74060;BMP280;62414;53.436;8.828;2022-12-05T08:51:05;101553.66;;;5.20
74060;BMP280;62414;53.436;8.828;2022-12-05T08:53:31;101550.97;;;5.20
74060;BMP280;62414;53.436;8.828;2022-12-05T08:55:59;101545.22;;;5.18
74060;BMP280;62414;53.436;8.828;2022-12-05T08:58:25;101548.72;;;5.22
74060;BMP280;62414;53.436;8.828;2022-12-05T09:00:50;101549.50;;;5.22
74060;BMP280;62414;53.436;8.828;2022-12-05T09:03:16;101550.59;;;5.21
74060;BMP280;62414;53.436;8.828;2022-12-05T09:05:42;101546.44;;;5.24
74060;BMP280;62414;53.436;8.828;2022-12-05T09:08:08;101546.81;;;5.22
74060;BMP280;62414;53.436;8.828;2022-12-05T09:10:33;101544.13;;;5.22
74060;BMP280;62414;53.436;8.828;2022-12-05T09:12:59;101556.03;;;5.25
74060;BMP280;62414;53.436;8.828;2022-12-05T09:15:24;101556.44;;;5.27
74060;BMP280;62414;53.436;8.828;2022-12-05T09:17:49;101555.66;;;5.26
74060;BMP280;62414;53.436;8.828;2022-12-05T09:20:15;101554.53;;;5.27
74060;BMP280;62414;53.436;8.828;2022-12-05T09:22:42;101549.94;;;5.28
74060;BMP280;62414;53.436;8.828;2022-12-05T09:25:08;101546.06;;;5.25
74060;BMP280;62414;53.436;8.828;2022-12-05T09:27:34;101549.84;;;5.21
74060;BMP280;62414;53.436;8.828;2022-12-05T09:29:59;101553.72;;;5.23
74060;BMP280;62414;53.436;8.828;2022-12-05T09:32:25;101549.50;;;5.22
74060;BMP280;62414;53.436;8.828;2022-12-05T09:34:50;101547.59;;;5.26
74060;BMP280;62414;53.436;8.828;2022-12-05T09:37:15;101555.25;;;5.24
74060;BMP280;62414;53.436;8.828;2022-12-05T09:39:43;101545.66;;;5.23
74060;BMP280;62414;53.436;8.828;2022-12-05T09:42:19;101546.47;;;5.27
74060;BMP280;62414;53.436;8.828;2022-12-05T09:47:47;101538.41;;;5.31
74060;BMP280;62414;53.436;8.828;2022-12-05T09:50:18;101545.66;;;5.23
74060;BMP280;62414;53.436;8.828;2022-12-05T09:52:53;101551.41;;;5.25
74060;BMP280;62414;53.436;8.828;2022-12-05T09:55:21;101547.91;;;5.21
74060;BMP280;62414;53.436;8.828;2022-12-05T09:57:51;101549.88;;;5.24
74060;BMP280;62414;53.436;8.828;2022-12-05T10:00:18;101544.88;;;5.23
74060;BMP280;62414;53.436;8.828;2022-12-05T10:02:54;101539.06;;;5.17
74060;BMP280;62414;53.436;8.828;2022-12-05T10:05:25;101542.16;;;5.19
74060;BMP280;62414;53.436;8.828;2022-12-05T10:07:58;101541.78;;;5.21
74060;BMP280;62414;53.436;8.828;2022-12-05T10:10:33;101541.00;;;5.20
74060;BMP280;62414;53.436;8.828;2022-12-05T10:13:09;101545.53;;;5.09
74060;BMP280;62414;53.436;8.828;2022-12-05T10:15:41;101541.31;;;5.08
74060;BMP280;62414;53.436;8.828;2022-12-05T10:18:18;101539.41;;;5.09
74060;BMP280;62414;53.436;8.828;2022-12-05T10:20:50;101542.09;;;5.16
74060;BMP280;62414;53.436;8.828;2022-12-05T10:23:19;101546.06;;;5.25
74060;BMP280;62414;53.436;8.828;2022-12-05T10:25:53;101534.72;;;5.50
74060;BMP280;62414;53.436;8.828;2022-12-05T10:28:27;101533.50;;;5.40
74060;BMP280;62414;53.436;8.828;2022-12-05T10:30:55;101527.28;;;5.29
74060;BMP280;62414;53.436;8.828;2022-12-05T10:33:24;101540.66;;;5.22
74060;BMP280;62414;53.436;8.828;2022-12-05T10:35:54;101532.91;;;5.17
74060;BMP280;62414;53.436;8.828;2022-12-05T10:38:23;101536.69;;;5.12
74060;BMP280;62414;53.436;8.828;2022-12-05T10:40:53;101534.47;;;5.18
74060;BMP280;62414;53.436;8.828;2022-12-05T10:43:24;101536.41;;;5.21
74060;BMP280;62414;53.436;8.828;2022-12-05T10:45:49;101529.47;;;5.16
74060;BMP280;62414;53.436;8.828;2022-12-05T10:48:17;101535.97;;;5.15
74060;BMP280;62414;53.436;8.828;2022-12-05T10:50:45;101539.41;;;5.09
74060;BMP280;62414;53.436;8.828;2022-12-05T10:53:14;101534.75;;;5.06
74060;BMP280;62414;53.436;8.828;2022-12-05T10:55:43;101544.00;;;5.08
74060;BMP280;62414;53.436;8.828;2022-12-05T10:58:11;101533.66;;;5.10
74060;BMP280;62414;53.436;8.828;2022-12-05T11:00:38;101538.25;;;5.10
74060;BMP280;62414;53.436;8.828;2022-12-05T11:03:03;101530.91;;;5.07
74060;BMP280;62414;53.436;8.828;2022-12-05T11:05:38;101530.91;;;5.07
74060;BMP280;62414;53.436;8.828;2022-12-05T11:08:03;101527.09;;;5.08
74060;BMP280;62414;53.436;8.828;2022-12-05T11:10:31;101516.78;;;5.10
74060;BMP280;62414;53.436;8.828;2022-12-05T11:12:58;101519.38;;;5.02
74060;BMP280;62414;53.436;8.828;2022-12-05T11:15:27;101525.84;;;4.94
74060;BMP280;62414;53.436;8.828;2022-12-05T11:17:54;101523.16;;;4.94
74060;BMP280;62414;53.436;8.828;2022-12-05T11:20:36;101518.47;;;4.88
74060;BMP280;62414;53.436;8.828;2022-12-05T11:23:16;101526.84;;;4.83
74060;BMP280;62414;53.436;8.828;2022-12-05T11:25:42;101522.16;;;4.72
74060;BMP280;62414;53.436;8.828;2022-12-05T11:28:28;101522.53;;;4.71
74060;BMP280;62414;53.436;8.828;2022-12-05T11:31:02;101517.56;;;4.73
74060;BMP280;62414;53.436;8.828;2022-12-05T11:33:30;101514.16;;;4.76
74060;BMP280;62414;53.436;8.828;2022-12-05T11:36:00;101514.88;;;4.76
74060;BMP280;62414;53.436;8.828;2022-12-05T11:38:27;101511.47;;;4.76
74060;BMP280;62414;53.436;8.828;2022-12-05T11:40:59;101519.41;;;4.69
74060;BMP280;62414;53.436;8.828;2022-12-05T11:43:56;101508.75;;;4.72
74060;BMP280;62414;53.436;8.828;2022-12-05T11:46:33;101508.69;;;4.69
74060;BMP280;62414;53.436;8.828;2022-12-05T11:49:14;101506.00;;;4.69
74060;BMP280;62414;53.436;8.828;2022-12-05T11:51:46;101505.19;;;4.65
74060;BMP280;62414;53.436;8.828;2022-12-05T11:54:27;101509.38;;;4.62
74060;BMP280;62414;53.436;8.828;2022-12-05T11:56:58;101501.72;;;4.61
74060;BMP280;62414;53.436;8.828;2022-12-05T11:59:50;101497.13;;;4.61
74060;BMP280;62414;53.436;8.828;2022-12-05T12:02:29;101497.13;;;4.61
74060;BMP280;62414;53.436;8.828;2022-12-05T12:05:04;101504.41;;;4.61
74060;BMP280;62414;53.436;8.828;2022-12-05T12:07:45;101494.00;;;4.59
74060;BMP280;62414;53.436;8.828;2022-12-05T12:10:20;101494.44;;;4.61
74060;BMP280;62414;53.436;8.828;2022-12-05T12:12:58;101492.97;;;4.67
74060;BMP280;62414;53.436;8.828;2022-12-05T12:15:48;101495.25;;;4.65
74060;BMP280;62414;53.436;8.828;2022-12-05T12:18:37;101498.34;;;4.67
74060;BMP280;62414;53.436;8.828;2022-12-05T12:21:15;101494.94;;;4.70
74060;BMP280;62414;53.436;8.828;2022-12-05T12:23:49;101496.47;;;4.71
74060;BMP280;62414;53.436;8.828;2022-12-05T12:26:24;101496.78;;;4.66
74060;BMP280;62414;53.436;8.828;2022-12-05T12:29:00;101500.63;;;4.65
74060;BMP280;62414;53.436;8.828;2022-12-05T12:31:42;101500.50;;;4.58
74060;BMP280;62414;53.436;8.828;2022-12-05T12:34:30;101507.38;;;4.52
74060;BMP280;62414;53.436;8.828;2022-12-05T12:37:02;101504.56;;;4.45
74060;BMP280;62414;53.436;8.828;2022-12-05T12:39:37;101504.13;;;4.39
74060;BMP280;62414;53.436;8.828;2022-12-05T12:42:19;101499.22;;;4.45
74060;BMP280;62414;53.436;8.828;2022-12-05T12:47:42;101501.97;;;4.48
74060;BMP280;62414;53.436;8.828;2022-12-05T12:50:18;101501.13;;;4.44
74060;BMP280;62414;53.436;8.828;2022-12-05T12:55:40;101486.59;;;4.45
74060;BMP280;62414;53.436;8.828;2022-12-05T12:58:16;101486.13;;;4.40
74060;BMP280;62414;53.436;8.828;2022-12-05T13:00:53;101485.75;;;4.38
74060;BMP280;62414;53.436;8.828;2022-12-05T13:03:23;101483.84;;;4.38
74060;BMP280;62414;53.436;8.828;2022-12-05T13:05:55;101483.03;;;4.34
74060;BMP280;62414;53.436;8.828;2022-12-05T13:08:26;101491.13;;;4.38
74060;BMP280;62414;53.436;8.828;2022-12-05T13:10:54;101495.28;;;4.35
74060;BMP280;62414;53.436;8.828;2022-12-05T13:13:25;101491.00;;;4.31
74060;BMP280;62414;53.436;8.828;2022-12-05T13:15:53;101484.22;;;4.37
74060;BMP280;62414;53.436;8.828;2022-12-05T13:18:22;101482.41;;;4.48
74060;BMP280;62414;53.436;8.828;2022-12-05T13:20:51;101485.03;;;4.44
74060;BMP280;62414;53.436;8.828;2022-12-05T13:23:17;101488.09;;;4.43
74060;BMP280;62414;53.436;8.828;2022-12-05T13:25:44;101483.88;;;4.42
74060;BMP280;62414;53.436;8.828;2022-12-05T13:28:21;101489.78;;;4.25
74060;BMP280;62414;53.436;8.828;2022-12-05T13:30:48;101485.91;;;4.22
74060;BMP280;62414;53.436;8.828;2022-12-05T13:33:15;101487.03;;;4.17
74060;BMP280;62414;53.436;8.828;2022-12-05T13:35:41;101490.47;;;4.18
74060;BMP280;62414;53.436;8.828;2022-12-05T13:38:18;101491.66;;;4.20
74060;BMP280;62414;53.436;8.828;2022-12-05T13:40:49;101488.16;;;4.16
74060;BMP280;62414;53.436;8.828;2022-12-05T13:43:18;101491.97;;;4.15
74060;BMP280;62414;53.436;8.828;2022-12-05T13:45:57;101492.38;;;4.17
74060;BMP280;62414;53.436;8.828;2022-12-05T13:48:24;101492.75;;;4.16
74060;BMP280;62414;53.436;8.828;2022-12-05T13:50:53;101496.50;;;4.11
74060;BMP280;62414;53.436;8.828;2022-12-05T13:53:28;101498.34;;;4.04
74060;BMP280;62414;53.436;8.828;2022-12-05T13:55:57;101487.97;;;4.02
74060;BMP280;62414;53.436;8.828;2022-12-05T13:58:40;101494.03;;;3.96
74060;BMP280;62414;53.436;8.828;2022-12-05T14:01:46;101495.50;;;3.93
74060;BMP280;62414;53.436;8.828;2022-12-05T14:04:43;101502.31;;;3.87
74060;BMP280;62414;53.436;8.828;2022-12-05T14:07:09;101497.06;;;3.94
74060;BMP280;62414;53.436;8.828;2022-12-05T14:09:50;101498.16;;;3.89
74060;BMP280;62414;53.436;8.828;2022-12-05T14:15:23;101495.06;;;4.17
74060;BMP280;62414;53.436;8.828;2022-12-05T14:17:54;101494.06;;;4.29
74060;BMP280;62414;53.436;8.828;2022-12-05T14:20:24;101491.25;;;4.18
74060;BMP280;62414;53.436;8.828;2022-12-05T14:23:05;101495.38;;;4.12
74060;BMP280;62414;53.436;8.828;2022-12-05T14:25:41;101496.06;;;4.06
74060;BMP280;62414;53.436;8.828;2022-12-05T14:28:19;101495.09;;;3.91
74060;BMP280;62414;53.436;8.828;2022-12-05T14:30:59;101496.25;;;3.90
74060;BMP280;62414;53.436;8.828;2022-12-05T14:33:28;101495.88;;;3.91